sensor_id;sensor_type;location;lat;lon;timestamp;pressure;altitude;pressure_sealevel;temperature;humidity
19526;BME280;9907;42.676;26.348;2023-04-06T00:00:36;98556.06;;;7.02;81.43
19526;BME280;9907;42.676;26.348;2023-04-06T00:03:02;98561.69;;;7.20;80.19
19526;BME280;9907;42.676;26.348;2023-04-06T00:05:28;98547.03;;;7.25;79.01
19526;BME280;9907;42.676;26.348;2023-04-06T00:07:57;98545.50;;;7.44;77.04
19526;BME280;9907;42.676;26.348;2023-04-06T00:10:22;98539.00;;;7.37;78.71
19526;BME280;9907;42.676;26.348;2023-04-06T00:12:48;98540.25;;;7.32;79.29
19526;BME280;9907;42.676;26.348;2023-04-06T00:15:13;98551.75;;;7.01;82.48
19526;BME280;9907;42.676;26.348;2023-04-06T00:17:38;98539.09;;;6.94;82.56
19526;BME280;9907;42.676;26.348;2023-04-06T00:20:04;98544.94;;;6.76;84.56
19526;BME280;9907;42.676;26.348;2023-04-06T00:22:30;98538.59;;;6.68;83.79
19526;BME280;9907;42.676;26.348;2023-04-06T00:24:56;98541.94;;;6.70;84.93
19526;BME280;9907;42.676;26.348;2023-04-06T00:27:21;98537.41;;;6.93;83.42
19526;BME280;9907;42.676;26.348;2023-04-06T00:29:47;98529.91;;;6.98;81.53
19526;BME280;9907;42.676;26.348;2023-04-06T00:32:12;98523.34;;;7.13;79.96
19526;BME280;9907;42.676;26.348;2023-04-06T00:34:37;98516.00;;;7.26;78.34
19526;BME280;9907;42.676;26.348;2023-04-06T00:37:03;98516.75;;;6.96;80.95
19526;BME280;9907;42.676;26.348;2023-04-06T00:39:28;98521.22;;;6.96;81.75
19526;BME280;9907;42.676;26.348;2023-04-06T00:41:54;98512.47;;;6.84;83.64
19526;BME280;9907;42.676;26.348;2023-04-06T00:44:21;98515.16;;;6.73;82.20
19526;BME280;9907;42.676;26.348;2023-04-06T00:46:47;98518.91;;;6.70;82.11
19526;BME280;9907;42.676;26.348;2023-04-06T00:49:13;98522.09;;;6.64;82.31
19526;BME280;9907;42.676;26.348;2023-04-06T00:51:38;98512.41;;;6.63;81.77
19526;BME280;9907;42.676;26.348;2023-04-06T00:54:04;98514.47;;;6.60;80.71
19526;BME280;9907;42.676;26.348;2023-04-06T00:56:30;98519.06;;;6.58;81.04
19526;BME280;9907;42.676;26.348;2023-04-06T00:58:56;98513.97;;;6.66;80.73
19526;BME280;9907;42.676;26.348;2023-04-06T01:01:23;98508.56;;;6.67;81.68
19526;BME280;9907;42.676;26.348;2023-04-06T01:03:49;98513.56;;;6.81;79.90
19526;BME280;9907;42.676;26.348;2023-04-06T01:06:15;98506.34;;;6.83;79.98
19526;BME280;9907;42.676;26.348;2023-04-06T01:08:41;98507.28;;;6.82;80.69
19526;BME280;9907;42.676;26.348;2023-04-06T01:11:06;98511.22;;;6.67;80.78
19526;BME280;9907;42.676;26.348;2023-04-06T01:13:32;98507.22;;;6.62;79.74
19526;BME280;9907;42.676;26.348;2023-04-06T01:15:57;98503.38;;;6.55;79.54
19526;BME280;9907;42.676;26.348;2023-04-06T01:18:27;98503.75;;;6.61;80.97
19526;BME280;9907;42.676;26.348;2023-04-06T01:20:53;98500.88;;;6.53;80.81
19526;BME280;9907;42.676;26.348;2023-04-06T01:23:18;98491.22;;;6.52;81.31
19526;BME280;9907;42.676;26.348;2023-04-06T01:25:44;98487.94;;;6.60;81.16
19526;BME280;9907;42.676;26.348;2023-04-06T01:28:10;98490.56;;;6.71;80.44
19526;BME280;9907;42.676;26.348;2023-04-06T01:30:35;98470.91;;;6.94;76.88
19526;BME280;9907;42.676;26.348;2023-04-06T01:33:01;98469.63;;;7.09;76.02
19526;BME280;9907;42.676;26.348;2023-04-06T01:35:27;98464.19;;;6.90;77.34
19526;BME280;9907;42.676;26.348;2023-04-06T01:37:53;98473.75;;;6.81;78.64
19526;BME280;9907;42.676;26.348;2023-04-06T01:40:18;98474.56;;;6.61;80.86
19526;BME280;9907;42.676;26.348;2023-04-06T01:42:44;98471.44;;;6.56;80.40
19526;BME280;9907;42.676;26.348;2023-04-06T01:45:10;98466.38;;;6.53;80.64
19526;BME280;9907;42.676;26.348;2023-04-06T01:47:35;98467.47;;;6.51;79.41
19526;BME280;9907;42.676;26.348;2023-04-06T01:50:01;98462.16;;;6.51;79.72
19526;BME280;9907;42.676;26.348;2023-04-06T01:52:30;98456.47;;;6.55;81.37
19526;BME280;9907;42.676;26.348;2023-04-06T01:54:55;98458.31;;;6.44;80.26
19526;BME280;9907;42.676;26.348;2023-04-06T01:57:21;98458.78;;;6.49;79.13
19526;BME280;9907;42.676;26.348;2023-04-06T01:59:46;98464.69;;;6.52;79.76
19526;BME280;9907;42.676;26.348;2023-04-06T02:02:12;98464.00;;;6.50;80.06
19526;BME280;9907;42.676;26.348;2023-04-06T02:04:38;98460.59;;;6.48;79.53
19526;BME280;9907;42.676;26.348;2023-04-06T02:07:03;98464.09;;;6.49;80.75
19526;BME280;9907;42.676;26.348;2023-04-06T02:09:29;98463.25;;;6.48;79.15
19526;BME280;9907;42.676;26.348;2023-04-06T02:11:56;98453.53;;;6.69;78.19
19526;BME280;9907;42.676;26.348;2023-04-06T02:14:25;98458.66;;;6.61;78.47
19526;BME280;9907;42.676;26.348;2023-04-06T02:16:50;98455.50;;;6.56;80.38
19526;BME280;9907;42.676;26.348;2023-04-06T02:19:16;98459.59;;;6.60;78.55
19526;BME280;9907;42.676;26.348;2023-04-06T02:21:42;98459.41;;;6.73;77.41
19526;BME280;9907;42.676;26.348;2023-04-06T02:24:07;98456.00;;;6.82;76.29
19526;BME280;9907;42.676;26.348;2023-04-06T02:26:33;98457.88;;;6.70;77.43
19526;BME280;9907;42.676;26.348;2023-04-06T02:28:58;98449.94;;;6.59;77.99
19526;BME280;9907;42.676;26.348;2023-04-06T02:31:23;98453.56;;;6.58;78.25
19526;BME280;9907;42.676;26.348;2023-04-06T02:33:49;98460.09;;;6.54;77.91
19526;BME280;9907;42.676;26.348;2023-04-06T02:36:15;98455.31;;;6.48;78.90
19526;BME280;9907;42.676;26.348;2023-04-06T02:38:40;98459.91;;;6.46;78.84
19526;BME280;9907;42.676;26.348;2023-04-06T02:41:06;98465.22;;;6.46;78.58
19526;BME280;9907;42.676;26.348;2023-04-06T02:43:32;98453.16;;;6.42;78.85
19526;BME280;9907;42.676;26.348;2023-04-06T02:45:57;98454.34;;;6.49;78.67
19526;BME280;9907;42.676;26.348;2023-04-06T02:48:23;98457.47;;;6.43;78.25
19526;BME280;9907;42.676;26.348;2023-04-06T02:50:48;98466.44;;;6.42;77.17
19526;BME280;9907;42.676;26.348;2023-04-06T02:53:14;98460.63;;;6.37;77.49
19526;BME280;9907;42.676;26.348;2023-04-06T02:55:40;98463.44;;;6.35;77.57
19526;BME280;9907;42.676;26.348;2023-04-06T02:58:05;98462.06;;;6.41;76.11
19526;BME280;9907;42.676;26.348;2023-04-06T03:00:31;98467.63;;;6.38;76.24
19526;BME280;9907;42.676;26.348;2023-04-06T03:02:56;98469.69;;;6.34;76.31
19526;BME280;9907;42.676;26.348;2023-04-06T03:05:22;98470.25;;;6.49;75.94
19526;BME280;9907;42.676;26.348;2023-04-06T03:07:47;98467.25;;;6.54;75.07
19526;BME280;9907;42.676;26.348;2023-04-06T03:10:12;98471.72;;;6.42;75.22
19526;BME280;9907;42.676;26.348;2023-04-06T03:12:38;98472.53;;;6.54;72.23
19526;BME280;9907;42.676;26.348;2023-04-06T03:15:04;98470.66;;;6.65;69.93
19526;BME280;9907;42.676;26.348;2023-04-06T03:17:30;98476.91;;;6.75;69.68
19526;BME280;9907;42.676;26.348;2023-04-06T03:19:55;98475.22;;;6.74;69.99
19526;BME280;9907;42.676;26.348;2023-04-06T03:22:21;98477.88;;;6.74;69.45
19526;BME280;9907;42.676;26.348;2023-04-06T03:24:46;98482.94;;;6.77;68.76
19526;BME280;9907;42.676;26.348;2023-04-06T03:27:12;98479.50;;;6.55;70.78
19526;BME280;9907;42.676;26.348;2023-04-06T03:29:37;98481.75;;;6.39;71.64
19526;BME280;9907;42.676;26.348;2023-04-06T03:32:03;98478.56;;;6.56;70.66
19526;BME280;9907;42.676;26.348;2023-04-06T03:34:28;98480.09;;;6.58;68.84
19526;BME280;9907;42.676;26.348;2023-04-06T03:36:54;98483.38;;;6.51;68.07
19526;BME280;9907;42.676;26.348;2023-04-06T03:39:19;98492.47;;;6.37;68.85
19526;BME280;9907;42.676;26.348;2023-04-06T03:41:45;98487.84;;;6.61;68.77
19526;BME280;9907;42.676;26.348;2023-04-06T03:44:10;98487.09;;;6.59;69.39
19526;BME280;9907;42.676;26.348;2023-04-06T03:46:36;98487.66;;;6.74;67.04
19526;BME280;9907;42.676;26.348;2023-04-06T03:49:01;98486.84;;;6.62;67.37
19526;BME280;9907;42.676;26.348;2023-04-06T03:51:27;98485.41;;;6.58;68.68
19526;BME280;9907;42.676;26.348;2023-04-06T03:53:53;98479.41;;;6.56;66.22
19526;BME280;9907;42.676;26.348;2023-04-06T03:56:18;98489.47;;;6.73;65.70
19526;BME280;9907;42.676;26.348;2023-04-06T03:58:44;98490.13;;;6.55;67.06
19526;BME280;9907;42.676;26.348;2023-04-06T04:01:16;98481.41;;;6.64;65.59
19526;BME280;9907;42.676;26.348;2023-04-06T04:03:42;98478.72;;;6.75;63.91
19526;BME280;9907;42.676;26.348;2023-04-06T04:06:08;98479.84;;;6.72;63.62
19526;BME280;9907;42.676;26.348;2023-04-06T04:08:33;98483.50;;;6.60;64.17
19526;BME280;9907;42.676;26.348;2023-04-06T04:11:00;98483.72;;;6.68;64.57
19526;BME280;9907;42.676;26.348;2023-04-06T04:13:26;98478.00;;;6.73;64.00
19526;BME280;9907;42.676;26.348;2023-04-06T04:15:51;98483.81;;;6.67;63.40
19526;BME280;9907;42.676;26.348;2023-04-06T04:18:18;98492.41;;;6.59;64.90
19526;BME280;9907;42.676;26.348;2023-04-06T04:20:43;98490.81;;;6.68;63.00
19526;BME280;9907;42.676;26.348;2023-04-06T04:23:09;98485.19;;;6.61;62.63
19526;BME280;9907;42.676;26.348;2023-04-06T04:25:34;98489.25;;;6.65;62.10
19526;BME280;9907;42.676;26.348;2023-04-06T04:28:00;98490.56;;;6.71;61.81
19526;BME280;9907;42.676;26.348;2023-04-06T04:30:25;98491.16;;;6.74;62.15
19526;BME280;9907;42.676;26.348;2023-04-06T04:32:51;98496.72;;;6.71;61.17
19526;BME280;9907;42.676;26.348;2023-04-06T04:35:16;98500.28;;;6.50;61.20
19526;BME280;9907;42.676;26.348;2023-04-06T04:37:42;98500.75;;;6.55;61.15
19526;BME280;9907;42.676;26.348;2023-04-06T04:40:07;98493.38;;;6.58;61.00
19526;BME280;9907;42.676;26.348;2023-04-06T04:42:33;98492.88;;;6.64;60.97
19526;BME280;9907;42.676;26.348;2023-04-06T04:44:59;98488.25;;;6.46;63.02
19526;BME280;9907;42.676;26.348;2023-04-06T04:47:25;98492.44;;;6.48;63.67
19526;BME280;9907;42.676;26.348;2023-04-06T04:49:50;98494.84;;;6.51;62.02
19526;BME280;9907;42.676;26.348;2023-04-06T04:52:16;98483.00;;;6.55;62.29
19526;BME280;9907;42.676;26.348;2023-04-06T04:54:41;98486.59;;;6.65;61.40
19526;BME280;9907;42.676;26.348;2023-04-06T04:57:07;98487.88;;;6.82;60.25
19526;BME280;9907;42.676;26.348;2023-04-06T04:59:34;98488.72;;;6.82;62.36
19526;BME280;9907;42.676;26.348;2023-04-06T05:01:59;98496.13;;;6.68;60.47
19526;BME280;9907;42.676;26.348;2023-04-06T05:04:25;98498.41;;;6.72;61.82
19526;BME280;9907;42.676;26.348;2023-04-06T05:07:02;98490.22;;;6.64;60.74
19526;BME280;9907;42.676;26.348;2023-04-06T05:09:29;98490.63;;;6.80;60.43
19526;BME280;9907;42.676;26.348;2023-04-06T05:11:55;98492.22;;;6.83;59.57
19526;BME280;9907;42.676;26.348;2023-04-06T05:14:21;98488.28;;;6.66;58.63
19526;BME280;9907;42.676;26.348;2023-04-06T05:16:46;98489.56;;;6.83;59.02
19526;BME280;9907;42.676;26.348;2023-04-06T05:19:12;98475.31;;;7.05;59.79
19526;BME280;9907;42.676;26.348;2023-04-06T05:21:37;98485.91;;;6.84;58.15
19526;BME280;9907;42.676;26.348;2023-04-06T05:24:03;98492.31;;;6.81;57.92
19526;BME280;9907;42.676;26.348;2023-04-06T05:26:29;98480.50;;;6.54;58.26
19526;BME280;9907;42.676;26.348;2023-04-06T05:28:54;98489.63;;;6.93;58.75
19526;BME280;9907;42.676;26.348;2023-04-06T05:31:20;98478.47;;;6.99;57.30
19526;BME280;9907;42.676;26.348;2023-04-06T05:33:45;98480.06;;;7.01;57.76
19526;BME280;9907;42.676;26.348;2023-04-06T05:36:11;98478.94;;;7.24;57.47
19526;BME280;9907;42.676;26.348;2023-04-06T05:38:37;98475.75;;;7.51;57.52
19526;BME280;9907;42.676;26.348;2023-04-06T05:41:02;98477.97;;;7.76;56.73
19526;BME280;9907;42.676;26.348;2023-04-06T05:43:28;98478.69;;;8.09;56.50
19526;BME280;9907;42.676;26.348;2023-04-06T05:45:53;98468.75;;;8.20;55.26
19526;BME280;9907;42.676;26.348;2023-04-06T05:48:19;98472.63;;;8.56;55.01
19526;BME280;9907;42.676;26.348;2023-04-06T05:50:48;98455.69;;;8.86;53.77
19526;BME280;9907;42.676;26.348;2023-04-06T05:53:14;98465.50;;;9.05;53.42
19526;BME280;9907;42.676;26.348;2023-04-06T05:55:40;98459.88;;;9.08;53.88
19526;BME280;9907;42.676;26.348;2023-04-06T05:58:05;98461.84;;;9.15;53.89
19526;BME280;9907;42.676;26.348;2023-04-06T06:00:31;98457.06;;;9.19;53.43
19526;BME280;9907;42.676;26.348;2023-04-06T06:02:56;98447.59;;;9.44;52.28
19526;BME280;9907;42.676;26.348;2023-04-06T06:05:22;98450.47;;;9.69;51.94
19526;BME280;9907;42.676;26.348;2023-04-06T06:07:47;98441.06;;;10.02;51.23
19526;BME280;9907;42.676;26.348;2023-04-06T06:10:13;98441.00;;;10.39;51.63
19526;BME280;9907;42.676;26.348;2023-04-06T06:12:38;98435.78;;;10.83;50.43
19526;BME280;9907;42.676;26.348;2023-04-06T06:15:04;98443.00;;;10.90;49.84
19526;BME280;9907;42.676;26.348;2023-04-06T06:17:30;98437.16;;;10.69;49.19
19526;BME280;9907;42.676;26.348;2023-04-06T06:19:56;98429.75;;;10.81;49.02
19526;BME280;9907;42.676;26.348;2023-04-06T06:22:21;98432.78;;;11.03;48.58
19526;BME280;9907;42.676;26.348;2023-04-06T06:24:46;98428.63;;;11.09;48.86
19526;BME280;9907;42.676;26.348;2023-04-06T06:27:12;98424.41;;;10.81;48.22
19526;BME280;9907;42.676;26.348;2023-04-06T06:29:38;98427.38;;;10.95;48.90
19526;BME280;9907;42.676;26.348;2023-04-06T06:32:03;98427.09;;;11.24;47.82
19526;BME280;9907;42.676;26.348;2023-04-06T06:34:29;98436.06;;;11.15;47.19
19526;BME280;9907;42.676;26.348;2023-04-06T06:36:55;98428.31;;;11.30;46.86
19526;BME280;9907;42.676;26.348;2023-04-06T06:39:20;98445.63;;;10.82;47.09
19526;BME280;9907;42.676;26.348;2023-04-06T06:41:46;98444.56;;;10.75;47.54
19526;BME280;9907;42.676;26.348;2023-04-06T06:44:12;98432.88;;;10.58;47.81
19526;BME280;9907;42.676;26.348;2023-04-06T06:46:37;98444.53;;;10.57;48.16
19526;BME280;9907;42.676;26.348;2023-04-06T06:49:03;98437.06;;;10.61;47.32
19526;BME280;9907;42.676;26.348;2023-04-06T06:51:28;98442.25;;;10.62;47.25
19526;BME280;9907;42.676;26.348;2023-04-06T06:53:53;98448.50;;;10.53;47.34
19526;BME280;9907;42.676;26.348;2023-04-06T06:56:19;98443.22;;;10.26;48.11
19526;BME280;9907;42.676;26.348;2023-04-06T06:58:45;98435.09;;;10.81;47.98
19526;BME280;9907;42.676;26.348;2023-04-06T07:01:10;98450.34;;;10.53;47.89
19526;BME280;9907;42.676;26.348;2023-04-06T07:03:36;98449.13;;;10.20;48.05
19526;BME280;9907;42.676;26.348;2023-04-06T07:06:02;98445.38;;;10.75;47.81
19526;BME280;9907;42.676;26.348;2023-04-06T07:08:27;98440.97;;;10.84;47.94
19526;BME280;9907;42.676;26.348;2023-04-06T07:10:53;98446.75;;;11.15;48.22
19526;BME280;9907;42.676;26.348;2023-04-06T07:13:19;98463.22;;;10.57;47.67
19526;BME280;9907;42.676;26.348;2023-04-06T07:15:51;98454.09;;;10.78;47.56
19526;BME280;9907;42.676;26.348;2023-04-06T07:18:18;98453.47;;;10.66;48.08
19526;BME280;9907;42.676;26.348;2023-04-06T07:20:46;98455.56;;;10.90;48.13
19526;BME280;9907;42.676;26.348;2023-04-06T07:23:11;98454.50;;;10.83;47.79
19526;BME280;9907;42.676;26.348;2023-04-06T07:25:37;98452.31;;;10.68;47.95
19526;BME280;9907;42.676;26.348;2023-04-06T07:28:03;98458.22;;;10.90;47.56
19526;BME280;9907;42.676;26.348;2023-04-06T07:30:29;98448.13;;;10.84;47.78
19526;BME280;9907;42.676;26.348;2023-04-06T07:32:55;98451.03;;;10.55;50.43
19526;BME280;9907;42.676;26.348;2023-04-06T07:35:25;98454.56;;;10.55;51.05
19526;BME280;9907;42.676;26.348;2023-04-06T07:37:52;98461.28;;;10.59;51.13
19526;BME280;9907;42.676;26.348;2023-04-06T07:40:18;98460.50;;;10.67;50.99
19526;BME280;9907;42.676;26.348;2023-04-06T07:42:45;98456.59;;;10.44;51.60
19526;BME280;9907;42.676;26.348;2023-04-06T07:45:11;98456.81;;;10.50;51.67
19526;BME280;9907;42.676;26.348;2023-04-06T07:47:36;98457.25;;;10.46;51.32
19526;BME280;9907;42.676;26.348;2023-04-06T07:50:02;98456.44;;;10.45;51.11
19526;BME280;9907;42.676;26.348;2023-04-06T07:52:27;98458.03;;;10.38;51.64
19526;BME280;9907;42.676;26.348;2023-04-06T07:54:53;98461.38;;;10.40;51.29
19526;BME280;9907;42.676;26.348;2023-04-06T07:57:18;98464.03;;;10.22;51.57
19526;BME280;9907;42.676;26.348;2023-04-06T07:59:44;98457.13;;;10.47;52.94
19526;BME280;9907;42.676;26.348;2023-04-06T08:02:09;98457.00;;;10.66;51.68
19526;BME280;9907;42.676;26.348;2023-04-06T08:04:35;98456.59;;;10.79;50.87
19526;BME280;9907;42.676;26.348;2023-04-06T08:07:01;98456.38;;;10.55;48.90
19526;BME280;9907;42.676;26.348;2023-04-06T08:09:26;98457.09;;;10.30;48.60
19526;BME280;9907;42.676;26.348;2023-04-06T08:11:52;98457.19;;;10.38;50.00
19526;BME280;9907;42.676;26.348;2023-04-06T08:14:18;98454.00;;;10.52;48.79
19526;BME280;9907;42.676;26.348;2023-04-06T08:16:43;98448.91;;;10.58;48.95
19526;BME280;9907;42.676;26.348;2023-04-06T08:19:09;98444.09;;;10.80;48.54
19526;BME280;9907;42.676;26.348;2023-04-06T08:21:35;98449.56;;;11.13;48.65
19526;BME280;9907;42.676;26.348;2023-04-06T08:24:01;98453.31;;;11.03;47.77
19526;BME280;9907;42.676;26.348;2023-04-06T08:26:27;98453.16;;;10.51;48.47
19526;BME280;9907;42.676;26.348;2023-04-06T08:28:53;98444.53;;;10.57;48.21
19526;BME280;9907;42.676;26.348;2023-04-06T08:31:19;98457.88;;;10.12;49.00
19526;BME280;9907;42.676;26.348;2023-04-06T08:33:45;98450.28;;;10.17;48.65
19526;BME280;9907;42.676;26.348;2023-04-06T08:36:12;98446.88;;;9.88;49.03
19526;BME280;9907;42.676;26.348;2023-04-06T08:38:38;98448.16;;;10.21;49.04
19526;BME280;9907;42.676;26.348;2023-04-06T08:41:10;98445.25;;;10.59;49.15
19526;BME280;9907;42.676;26.348;2023-04-06T08:43:42;98447.91;;;10.59;50.89
19526;BME280;9907;42.676;26.348;2023-04-06T08:46:11;98445.47;;;10.66;50.31
19526;BME280;9907;42.676;26.348;2023-04-06T08:48:38;98441.13;;;10.83;49.62
19526;BME280;9907;42.676;26.348;2023-04-06T08:51:05;98442.00;;;11.09;49.13
19526;BME280;9907;42.676;26.348;2023-04-06T08:53:31;98434.13;;;11.25;48.22
19526;BME280;9907;42.676;26.348;2023-04-06T08:55:58;98428.91;;;11.23;47.99
19526;BME280;9907;42.676;26.348;2023-04-06T08:58:26;98429.63;;;11.26;48.52
19526;BME280;9907;42.676;26.348;2023-04-06T09:00:53;98426.22;;;11.41;47.89
19526;BME280;9907;42.676;26.348;2023-04-06T09:03:20;98421.00;;;11.65;47.50
19526;BME280;9907;42.676;26.348;2023-04-06T09:05:49;98422.38;;;11.69;48.72
19526;BME280;9907;42.676;26.348;2023-04-06T09:08:15;98416.56;;;11.48;47.69
19526;BME280;9907;42.676;26.348;2023-04-06T09:10:41;98424.66;;;11.56;47.11
19526;BME280;9907;42.676;26.348;2023-04-06T09:13:07;98417.16;;;11.16;47.55
19526;BME280;9907;42.676;26.348;2023-04-06T09:15:33;98424.84;;;11.37;48.74
19526;BME280;9907;42.676;26.348;2023-04-06T09:17:59;98422.38;;;11.44;49.76
19526;BME280;9907;42.676;26.348;2023-04-06T09:20:25;98420.16;;;11.39;48.90
19526;BME280;9907;42.676;26.348;2023-04-06T09:22:51;98417.75;;;11.28;47.62
19526;BME280;9907;42.676;26.348;2023-04-06T09:25:22;98411.53;;;11.45;50.25
19526;BME280;9907;42.676;26.348;2023-04-06T09:28:03;98416.66;;;11.39;47.58
19526;BME280;9907;42.676;26.348;2023-04-06T09:30:29;98415.19;;;11.44;48.10
19526;BME280;9907;42.676;26.348;2023-04-06T09:32:56;98415.91;;;11.54;48.13
19526;BME280;9907;42.676;26.348;2023-04-06T09:35:23;98412.88;;;11.75;47.76
19526;BME280;9907;42.676;26.348;2023-04-06T09:37:50;98415.97;;;11.62;47.20
19526;BME280;9907;42.676;26.348;2023-04-06T09:40:17;98409.66;;;11.38;47.59
19526;BME280;9907;42.676;26.348;2023-04-06T09:42:48;98404.97;;;11.40;47.86
19526;BME280;9907;42.676;26.348;2023-04-06T09:45:15;98407.75;;;11.56;48.02
19526;BME280;9907;42.676;26.348;2023-04-06T09:47:45;98402.75;;;11.61;47.58
19526;BME280;9907;42.676;26.348;2023-04-06T09:50:14;98403.78;;;11.60;48.82
19526;BME280;9907;42.676;26.348;2023-04-06T09:52:47;98400.63;;;11.39;48.28
19526;BME280;9907;42.676;26.348;2023-04-06T09:55:20;98402.81;;;11.17;47.41
19526;BME280;9907;42.676;26.348;2023-04-06T09:57:58;98397.34;;;11.27;47.51
19526;BME280;9907;42.676;26.348;2023-04-06T10:00:27;98401.44;;;11.39;47.90
19526;BME280;9907;42.676;26.348;2023-04-06T10:03:14;98405.13;;;11.38;47.62
19526;BME280;9907;42.676;26.348;2023-04-06T10:05:46;98399.22;;;11.52;47.36
19526;BME280;9907;42.676;26.348;2023-04-06T10:08:14;98403.13;;;11.40;47.99
19526;BME280;9907;42.676;26.348;2023-04-06T10:10:40;98401.00;;;11.18;47.71
19526;BME280;9907;42.676;26.348;2023-04-06T10:13:07;98402.16;;;11.41;47.87
19526;BME280;9907;42.676;26.348;2023-04-06T10:15:35;98395.09;;;11.66;47.51
19526;BME280;9907;42.676;26.348;2023-04-06T10:18:03;98401.38;;;11.57;48.85
19526;BME280;9907;42.676;26.348;2023-04-06T10:23:31;98393.09;;;11.34;49.22
19526;BME280;9907;42.676;26.348;2023-04-06T10:25:59;98392.31;;;11.42;48.72
19526;BME280;9907;42.676;26.348;2023-04-06T10:28:26;98393.44;;;11.39;49.38
19526;BME280;9907;42.676;26.348;2023-04-06T10:30:59;98397.53;;;11.26;49.75
19526;BME280;9907;42.676;26.348;2023-04-06T10:33:25;98395.22;;;11.56;49.45
19526;BME280;9907;42.676;26.348;2023-04-06T10:35:51;98399.03;;;11.54;50.19
19526;BME280;9907;42.676;26.348;2023-04-06T10:38:16;98394.13;;;11.41;48.59
19526;BME280;9907;42.676;26.348;2023-04-06T10:40:47;98402.75;;;11.35;48.58
19526;BME280;9907;42.676;26.348;2023-04-06T10:43:19;98394.34;;;11.22;48.30
19526;BME280;9907;42.676;26.348;2023-04-06T10:45:54;98392.44;;;11.40;49.50
19526;BME280;9907;42.676;26.348;2023-04-06T10:48:21;98389.81;;;11.48;47.97
19526;BME280;9907;42.676;26.348;2023-04-06T10:50:48;98394.47;;;11.46;48.07
19526;BME280;9907;42.676;26.348;2023-04-06T10:53:44;98393.09;;;11.42;50.23
19526;BME280;9907;42.676;26.348;2023-04-06T10:56:12;98391.41;;;11.33;49.21
19526;BME280;9907;42.676;26.348;2023-04-06T10:58:38;98388.09;;;11.39;49.22
19526;BME280;9907;42.676;26.348;2023-04-06T11:01:10;98386.38;;;11.30;49.28
19526;BME280;9907;42.676;26.348;2023-04-06T11:03:49;98387.09;;;11.40;48.01
19526;BME280;9907;42.676;26.348;2023-04-06T11:06:25;98387.50;;;11.53;48.58
19526;BME280;9907;42.676;26.348;2023-04-06T11:08:53;98386.41;;;11.38;49.40
19526;BME280;9907;42.676;26.348;2023-04-06T11:11:20;98382.16;;;11.53;49.92
19526;BME280;9907;42.676;26.348;2023-04-06T11:16:15;98375.69;;;11.30;50.21
19526;BME280;9907;42.676;26.348;2023-04-06T11:18:49;98378.97;;;11.24;48.95
19526;BME280;9907;42.676;26.348;2023-04-06T11:21:14;98375.97;;;11.27;48.68
19526;BME280;9907;42.676;26.348;2023-04-06T11:23:40;98370.00;;;11.33;48.71
19526;BME280;9907;42.676;26.348;2023-04-06T11:26:10;98369.41;;;11.47;48.76
19526;BME280;9907;42.676;26.348;2023-04-06T11:28:36;98370.34;;;11.64;50.08
19526;BME280;9907;42.676;26.348;2023-04-06T11:31:02;98374.75;;;11.47;48.38
19526;BME280;9907;42.676;26.348;2023-04-06T11:33:27;98363.41;;;11.45;48.81
19526;BME280;9907;42.676;26.348;2023-04-06T11:35:57;98360.03;;;11.43;48.79
19526;BME280;9907;42.676;26.348;2023-04-06T11:38:22;98352.56;;;11.55;49.58
19526;BME280;9907;42.676;26.348;2023-04-06T11:40:53;98351.09;;;11.60;48.35
19526;BME280;9907;42.676;26.348;2023-04-06T11:43:26;98354.63;;;11.69;49.14
19526;BME280;9907;42.676;26.348;2023-04-06T11:45:59;98349.75;;;11.56;47.47
19526;BME280;9907;42.676;26.348;2023-04-06T11:48:26;98349.91;;;11.89;47.88
19526;BME280;9907;42.676;26.348;2023-04-06T11:50:55;98345.41;;;11.89;49.41
19526;BME280;9907;42.676;26.348;2023-04-06T11:53:22;98353.34;;;11.73;49.80
19526;BME280;9907;42.676;26.348;2023-04-06T11:55:47;98359.31;;;11.67;50.00
19526;BME280;9907;42.676;26.348;2023-04-06T11:58:13;98359.84;;;11.70;49.67
19526;BME280;9907;42.676;26.348;2023-04-06T12:00:38;98349.69;;;11.74;48.80
19526;BME280;9907;42.676;26.348;2023-04-06T12:03:04;98350.75;;;11.89;50.68
19526;BME280;9907;42.676;26.348;2023-04-06T12:05:29;98351.72;;;11.80;48.53
19526;BME280;9907;42.676;26.348;2023-04-06T12:07:55;98349.50;;;11.42;48.21
19526;BME280;9907;42.676;26.348;2023-04-06T12:10:21;98346.06;;;11.57;49.61
19526;BME280;9907;42.676;26.348;2023-04-06T12:12:46;98344.84;;;11.44;48.87
19526;BME280;9907;42.676;26.348;2023-04-06T12:15:12;98342.88;;;11.54;49.24
19526;BME280;9907;42.676;26.348;2023-04-06T12:17:37;98344.47;;;11.73;50.76
19526;BME280;9907;42.676;26.348;2023-04-06T12:20:03;98345.91;;;11.59;51.67
19526;BME280;9907;42.676;26.348;2023-04-06T12:22:29;98344.19;;;11.50;51.48
19526;BME280;9907;42.676;26.348;2023-04-06T12:24:54;98341.03;;;11.54;51.46
19526;BME280;9907;42.676;26.348;2023-04-06T12:27:20;98345.34;;;11.47;52.68
19526;BME280;9907;42.676;26.348;2023-04-06T12:29:47;98341.91;;;11.29;51.38
19526;BME280;9907;42.676;26.348;2023-04-06T12:32:12;98341.59;;;11.32;52.79
19526;BME280;9907;42.676;26.348;2023-04-06T12:34:38;98342.19;;;11.52;51.19
19526;BME280;9907;42.676;26.348;2023-04-06T12:37:03;98335.25;;;11.33;53.15
19526;BME280;9907;42.676;26.348;2023-04-06T12:39:29;98341.28;;;11.35;53.02
19526;BME280;9907;42.676;26.348;2023-04-06T12:41:55;98338.53;;;11.19;52.96
19526;BME280;9907;42.676;26.348;2023-04-06T12:44:21;98336.13;;;11.16;54.13
19526;BME280;9907;42.676;26.348;2023-04-06T12:46:47;98342.22;;;11.26;53.59
19526;BME280;9907;42.676;26.348;2023-04-06T12:49:12;98339.91;;;11.31;54.09
19526;BME280;9907;42.676;26.348;2023-04-06T12:51:38;98335.88;;;11.27;52.79
19526;BME280;9907;42.676;26.348;2023-04-06T12:54:03;98338.63;;;11.43;52.59
19526;BME280;9907;42.676;26.348;2023-04-06T12:56:28;98334.75;;;11.63;52.08
19526;BME280;9907;42.676;26.348;2023-04-06T12:58:54;98323.63;;;11.50;51.57
19526;BME280;9907;42.676;26.348;2023-04-06T13:01:20;98328.22;;;11.66;52.01
19526;BME280;9907;42.676;26.348;2023-04-06T13:03:46;98322.75;;;11.76;51.34
19526;BME280;9907;42.676;26.348;2023-04-06T13:06:11;98334.84;;;11.88;51.46